KFWN

Details ICAO KFWN
Name SUSSEX
Region United States
Timezone America/New_York (UTC-5.0)
Plans Departing 17
Arriving 5
Stats Elevation 421 ft / 128 m (AMSL)
Location 41.200198° -74.623039°
Runways 1
Magnetic Variation 12.697° W
Sunrise 2017-12-18 12:20:24 UTC / 2017-12-18 07:20:24 Local
Sunset 2017-12-18 21:32:43 UTC / 2017-12-18 16:32:43 Local
Advertisement - Login to hide

Runways

ID Width Length Bearing (true) Bearing (mag) Surface Threshold Offset Overrun Length
03 75 ft / 23 m 3,503 ft / 1,068 m 15.89° 28.59° Asphalt 1,100 ft / 335 m 0 ft / 0 m
21 75 ft / 23 m 3,503 ft / 1,068 m 195.89° 208.59° Asphalt 750 ft / 229 m 0 ft / 0 m

Map

Weather


0- 5 10 15 20 25 30 35+ Temperature / ° C

Clouds and Precipitation
Forecast for 2017-12-18 12:00 UTC. Updated 2 hours ago

Ground ~20,000 ft ~40,000 ft Winds

METAR

KFWN 181253Z AUTO 08003KT 10SM OVC011 M02/M06 A3012 RMK AO2 SLP203 T10171061

TAF

Not found

Frequencies

Recorded 118.52 MHz ASOS
Approach 127.60 MHz NEW YORK APP/DEP
Unicom 122.70 MHz CTAF/UNICOM
Warning: Do not use this data for real-world aviation or navigation. No guarantee of current accuracy is given.